Portada
METAR-TAF:

METAR-TAF

Aeroports :

Osca, Espanya

latitud: 42-04-32N, longitud: 0-18-58W, altitud: 539 m

Observació

L'informe es va fer fa 19 minuts, a les 17:00 UTC
Vent 13 kt del Sud-Oest
Temperatura 27°C
Humitat 42%
Pressió 1020 hPa
Visibilitat 10 km o més
sense núvols per sota de 1500 mi sense presència de cumulonimbus.

METAR: LEHC 181700Z 23013KT CAVOK 27/13 Q1020

Hora: 19:19 (17:19 UTC)

Pronòstic

L'informe es va fer fa 1 hora i 51 minuts, a les 15:28 UTC
Pronòstic vàlid del 18 a les 15 UTC al 19 a les 09 UTC
Vent 10 kt del Sud-Oest
Visibilitat 10 km o més
Escasses núvols a una alçada de 4000 ft
Evolucionant progressivament
l' 18 a les 16 UTC al 18 a les 19 UTC
Vent 9 kt del Oest

TAF: LEHC 181528Z 1815/1909 23010KT 9999 FEW040 TX28/1815Z TN14/1905Z BECMG 1816/1819 27009KT

Observacions i pronòstics meteorològics de més de 4000 aeroports (METAR i TAF).

Les estacions disponibles són els punts grocs i vermells al mapa.

Posi el ratolí al punt desitjat per veure el nom de l'estació.

Feu clic per veure les observacions i els pronòstics meteorològics.

Per canviar el mapa: feu clic els botons verds amb una creu de color negre per apropar; al botó verd amb un guió per allunyar la imatge; o en les fletxes verdes per a mapes adjacents.


METAR-TAF: